This is the latest recevied weather packets stored in our database for station/object HA5CD-6. If no packets are shown the sender has not sent any weather packets the latest 10 day(s).
| Time | Temp. | Humidity | Pressure | Rain* | Wind** | Luminosity | Snow |
|---|---|---|---|---|---|---|---|
| 1777871781 | 21.67° C | 31% | 996 hPa | - | - | - | - |
| 1777870934 | 21.67° C | 31% | 996 hPa | - | - | - | - |
| 1777869744 | 19.44° C | 35% | 996 hPa | - | - | - | - |
| 1777869133 | 19.44° C | 34% | 996 hPa | - | - | - | - |
| 1777868533 | 18.89° C | 36% | 996 hPa | - | - | - | - |
| 1777867339 | 16.11° C | 41% | 996 hPa | - | - | - | - |
| 1777866733 | 11.67° C | 53% | 996 hPa | - | - | - | - |
| 1777865538 | 10° C | 57% | 996 hPa | - | - | - | - |
| 1777863733 | 10.56° C | 53% | 996 hPa | - | - | - | - |
| 1777847546 | 14.44° C | 42% | 996 hPa | - | - | - | - |
| 1777840328 | 16.11° C | 38% | 996 hPa | - | - | - | - |
| 1777839742 | 16.11° C | 38% | 996 hPa | - | - | - | - |
| 1777839128 | 16.11° C | 38% | 996 hPa | - | - | - | - |
| 1777837928 | 16.67° C | 37% | 996 hPa | - | - | - | - |
| 1777836728 | 16.67° C | 36% | 996 hPa | - | - | - | - |
| 1777836128 | 16.67° C | 36% | 996 hPa | - | - | - | - |
| 1777833127 | 17.22° C | 36% | 996 hPa | - | - | - | - |
| 1777832527 | 17.22° C | 35% | 995 hPa | - | - | - | - |
| 1777831927 | 17.22° C | 35% | 995 hPa | - | - | - | - |
| 1777831327 | 17.78° C | 34% | 995 hPa | - | - | - | - |
| 1777830727 | 18.33° C | 33% | 995 hPa | - | - | - | - |
| 1777827126 | 26.11° C | 22% | 995 hPa | - | - | - | - |
| 1777825926 | 26.67° C | 21% | 995 hPa | - | - | - | - |
| 1777825374 | 27.78° C | 20% | 995 hPa | - | - | - | - |
| 1777824780 | 27.78° C | 20% | 995 hPa | - | - | - | - |
* Rain since midnight (hover to see other rain measurements)
** Current wind speed in m/s (hover to see current wind gust speed)